createdAt,value
2022-10-14T00:01:19.202Z,6.13
2022-10-14T00:03:47.222Z,6.15
2022-10-14T00:06:18.598Z,5.90
2022-10-14T00:08:47.708Z,6.38
2022-10-14T00:11:18.002Z,6.38
2022-10-14T00:13:45.884Z,6.63
2022-10-14T00:16:21.582Z,6.63
2022-10-14T00:18:49.646Z,6.82
2022-10-14T00:21:17.581Z,6.30
2022-10-14T00:23:46.357Z,7.38
2022-10-14T00:26:16.314Z,6.82
2022-10-14T00:28:44.090Z,7.65
2022-10-14T00:31:11.833Z,7.05
2022-10-14T00:33:39.564Z,7.88
2022-10-14T00:36:08.178Z,7.78
2022-10-14T00:38:36.618Z,8.10
2022-10-14T00:41:04.994Z,8.00
2022-10-14T00:43:52.165Z,7.10
2022-10-14T00:46:20.078Z,8.02
2022-10-14T00:48:48.398Z,7.85
2022-10-14T00:51:16.173Z,7.55
2022-10-14T00:53:44.584Z,7.63
2022-10-14T00:56:14.074Z,8.23
2022-10-14T00:58:41.808Z,7.55
2022-10-14T01:01:09.586Z,8.43
2022-10-14T01:03:38.786Z,7.82
2022-10-14T01:06:12.634Z,7.88
2022-10-14T01:08:47.225Z,7.43
2022-10-14T01:11:21.684Z,7.80
2022-10-14T01:13:53.149Z,8.23
2022-10-14T01:16:23.390Z,7.32
2022-10-14T01:19:06.519Z,8.00
2022-10-14T01:21:39.089Z,7.78
2022-10-14T01:24:38.358Z,7.13
2022-10-14T01:27:13.660Z,6.95
2022-10-14T01:29:57.191Z,7.40
2022-10-14T01:32:28.236Z,7.25
2022-10-14T01:35:02.148Z,7.32
2022-10-14T01:37:32.543Z,6.78
2022-10-14T01:40:02.838Z,7.55
2022-10-14T01:42:34.904Z,7.32
2022-10-14T01:45:08.036Z,6.97
2022-10-14T01:47:38.242Z,7.03
2022-10-14T01:50:13.265Z,7.38
2022-10-14T01:52:47.005Z,7.50
2022-10-14T01:55:21.571Z,6.85
2022-10-14T01:57:54.151Z,6.97
2022-10-14T02:00:25.559Z,7.20
2022-10-14T02:02:56.866Z,6.55
2022-10-14T02:05:43.861Z,6.13
2022-10-14T02:08:42.942Z,6.63
2022-10-14T02:11:19.574Z,6.43
2022-10-14T02:14:13.024Z,6.45
2022-10-14T02:19:29.081Z,6.50
2022-10-14T02:22:27.737Z,5.97
2022-10-14T02:25:31.156Z,6.15
2022-10-14T02:28:07.848Z,6.78
2022-10-14T02:30:49.742Z,6.30
2022-10-14T02:33:23.515Z,6.10
2022-10-14T02:35:59.919Z,6.43
2022-10-14T02:38:33.646Z,6.30
2022-10-14T02:41:08.637Z,6.07
2022-10-14T02:43:40.694Z,6.07
2022-10-14T02:46:10.420Z,6.47
2022-10-14T02:48:40.787Z,6.55
2022-10-14T02:51:11.426Z,6.35
2022-10-14T02:53:42.025Z,6.35
2022-10-14T02:56:14.165Z,5.88
2022-10-14T02:58:45.764Z,6.03
2022-10-14T03:01:17.542Z,5.82
2022-10-14T03:03:48.592Z,5.53
2022-10-14T03:06:19.646Z,5.78
2022-10-14T03:08:50.741Z,5.38
2022-10-14T03:11:21.074Z,5.60
2022-10-14T03:13:50.413Z,5.65
2022-10-14T03:16:20.888Z,5.80
2022-10-14T03:18:51.664Z,5.45
2022-10-14T03:21:23.074Z,6.20
2022-10-14T03:23:54.407Z,5.65
2022-10-14T03:26:25.693Z,5.68
2022-10-14T03:28:54.684Z,5.88
2022-10-14T03:31:22.451Z,5.70
2022-10-14T03:33:50.249Z,5.97
2022-10-14T03:36:18.081Z,6.05
2022-10-14T03:38:46.062Z,5.57
2022-10-14T03:41:13.747Z,5.13
2022-10-14T03:43:41.434Z,5.50
2022-10-14T03:46:09.332Z,6.07
2022-10-14T03:48:37.026Z,6.63
2022-10-14T03:51:04.737Z,6.28
2022-10-14T03:53:32.408Z,5.70
2022-10-14T03:56:00.033Z,6.05
2022-10-14T03:58:27.822Z,5.38
2022-10-14T04:00:55.526Z,6.10
2022-10-14T04:03:23.337Z,6.07
2022-10-14T04:05:51.025Z,5.97
2022-10-14T04:08:19.038Z,5.80
2022-10-14T04:10:46.893Z,6.22
2022-10-14T04:13:14.551Z,6.60
2022-10-14T04:15:42.297Z,5.57
2022-10-14T04:18:10.200Z,5.20
2022-10-14T04:20:38.509Z,6.22
2022-10-14T04:23:06.191Z,6.22
2022-10-14T04:25:34.302Z,6.72
2022-10-14T04:28:02.049Z,6.38
2022-10-14T04:30:30.118Z,6.90
2022-10-14T04:32:58.737Z,6.53
2022-10-14T04:35:26.429Z,6.80
2022-10-14T04:37:57.979Z,7.65
2022-10-14T04:40:27.900Z,7.28
2022-10-14T04:42:58.857Z,7.68
2022-10-14T04:45:26.533Z,7.97
2022-10-14T04:47:54.282Z,9.10
2022-10-14T04:50:22.237Z,8.02
2022-10-14T04:52:49.920Z,8.43
2022-10-14T04:55:17.491Z,7.07
2022-10-14T04:57:45.536Z,9.13
2022-10-14T05:00:13.555Z,8.05
2022-10-14T05:02:41.253Z,8.40
2022-10-14T05:05:09.185Z,8.48
2022-10-14T05:07:37.317Z,8.25
2022-10-14T05:10:05.467Z,8.20
2022-10-14T05:12:33.160Z,8.40
2022-10-14T05:15:01.480Z,7.47
2022-10-14T05:17:32.881Z,8.00
2022-10-14T05:20:00.688Z,8.27
2022-10-14T05:22:31.097Z,8.15
2022-10-14T05:24:58.950Z,8.18
2022-10-14T05:27:26.702Z,8.48
2022-10-14T05:29:54.469Z,7.97
2022-10-14T05:32:22.715Z,8.27
2022-10-14T05:34:50.765Z,8.40
2022-10-14T05:37:18.450Z,8.63
2022-10-14T05:39:46.914Z,8.85
2022-10-14T05:42:14.611Z,7.43
2022-10-14T05:44:42.250Z,7.60
2022-10-14T05:47:10.787Z,7.38
2022-10-14T05:49:38.469Z,8.38
2022-10-14T05:52:06.220Z,7.78
2022-10-14T05:54:34.171Z,7.90
2022-10-14T05:57:02.280Z,8.10
2022-10-14T05:59:30.197Z,7.30
2022-10-14T06:01:57.987Z,7.22
2022-10-14T06:04:26.064Z,6.88
2022-10-14T06:06:54.107Z,5.57
2022-10-14T06:09:21.874Z,4.70
2022-10-14T06:11:49.930Z,4.85
2022-10-14T06:14:17.664Z,4.18
2022-10-14T06:16:45.614Z,4.72
2022-10-14T06:19:13.653Z,4.82
2022-10-14T06:21:41.392Z,5.88
2022-10-14T06:24:09.374Z,4.90
2022-10-14T06:26:38.382Z,4.82
2022-10-14T06:29:07.621Z,5.32
2022-10-14T06:31:36.398Z,5.15
2022-10-14T06:34:06.393Z,5.43
2022-10-14T06:36:35.529Z,4.75
2022-10-14T06:39:05.122Z,5.50
2022-10-14T06:41:33.716Z,4.80
2022-10-14T06:44:02.950Z,4.32
2022-10-14T06:46:31.205Z,3.40
2022-10-14T06:48:59.193Z,4.68
2022-10-14T06:51:27.938Z,3.60
2022-10-14T06:53:56.779Z,2.97
2022-10-14T06:56:26.747Z,3.38
2022-10-14T06:58:57.842Z,3.53
2022-10-14T07:01:28.979Z,3.80
2022-10-14T07:03:59.417Z,3.65
2022-10-14T07:06:27.414Z,3.78
2022-10-14T07:08:55.940Z,2.65
2022-10-14T07:11:23.929Z,3.17
2022-10-14T07:13:51.577Z,2.50
2022-10-14T07:16:21.620Z,1.95
2022-10-14T07:18:49.688Z,2.40
2022-10-14T07:21:18.462Z,2.03
2022-10-14T07:23:47.251Z,1.90
2022-10-14T07:26:15.285Z,1.70
2022-10-14T07:28:43.765Z,1.85
2022-10-14T07:31:13.372Z,1.30
2022-10-14T07:33:41.903Z,1.73
2022-10-14T07:36:15.064Z,1.77
2022-10-14T07:38:45.560Z,1.13
2022-10-14T07:41:17.226Z,2.20
2022-10-14T07:43:50.409Z,3.00
2022-10-14T07:48:58.164Z,2.10
2022-10-14T07:51:27.658Z,2.38
2022-10-14T07:53:57.625Z,1.90
2022-10-14T07:56:26.169Z,2.38
2022-10-14T07:58:54.202Z,2.20
2022-10-14T08:01:24.978Z,2.58
2022-10-14T08:03:52.695Z,2.30
2022-10-14T08:06:20.683Z,3.15
2022-10-14T08:08:48.485Z,2.70
2022-10-14T08:11:18.635Z,2.28
2022-10-14T08:13:46.974Z,2.58
2022-10-14T08:16:19.462Z,2.42
2022-10-14T08:18:47.854Z,2.28
2022-10-14T08:21:16.193Z,2.85
2022-10-14T08:23:43.981Z,2.50
2022-10-14T08:26:24.212Z,2.13
2022-10-14T08:28:54.597Z,2.25
2022-10-14T08:31:22.881Z,2.63
2022-10-14T08:33:50.788Z,2.50
2022-10-14T08:36:19.219Z,2.45
2022-10-14T08:38:47.333Z,2.40
2022-10-14T08:41:50.133Z,2.85
2022-10-14T08:44:39.593Z,2.28
2022-10-14T08:47:15.813Z,2.10
2022-10-14T08:49:58.856Z,2.33
2022-10-14T08:52:37.236Z,2.97
2022-10-14T08:55:26.100Z,2.20
2022-10-14T08:58:05.089Z,1.77
2022-10-14T09:00:35.501Z,2.08
2022-10-14T09:03:11.849Z,2.00
2022-10-14T09:05:40.598Z,2.72
2022-10-14T09:08:18.207Z,2.67
2022-10-14T09:10:50.800Z,2.70
2022-10-14T09:13:29.152Z,2.88
2022-10-14T09:16:19.390Z,2.80
2022-10-14T09:18:56.098Z,3.05
2022-10-14T09:21:47.970Z,2.67
2022-10-14T09:24:23.360Z,2.47
2022-10-14T09:29:29.374Z,3.10
2022-10-14T09:32:00.477Z,2.65
2022-10-14T09:34:35.775Z,2.20
2022-10-14T09:37:28.279Z,2.03
2022-10-14T09:40:00.114Z,2.92
2022-10-14T09:42:44.459Z,2.28
2022-10-14T09:45:15.038Z,2.03
2022-10-14T09:47:53.361Z,2.08
2022-10-14T09:50:30.355Z,2.55
2022-10-14T09:53:03.860Z,2.30
2022-10-14T09:55:32.815Z,2.67
2022-10-14T09:58:08.127Z,2.17
2022-10-14T10:00:38.028Z,2.25
2022-10-14T10:03:07.117Z,2.20
2022-10-14T10:05:36.416Z,2.30
2022-10-14T10:08:15.721Z,2.00
2022-10-14T10:11:14.071Z,3.08
2022-10-14T10:13:47.381Z,2.03
2022-10-14T10:18:55.427Z,1.55
2022-10-14T10:21:27.235Z,1.80
2022-10-14T10:23:59.474Z,1.60
2022-10-14T10:26:32.454Z,1.67
2022-10-14T10:32:06.660Z,1.90
2022-10-14T10:37:28.837Z,1.85
2022-10-14T10:40:21.990Z,2.13
2022-10-14T10:43:20.606Z,2.20
2022-10-14T10:46:20.608Z,2.38
2022-10-14T10:48:56.534Z,2.10
2022-10-14T10:51:39.662Z,1.50
2022-10-14T10:54:21.151Z,1.70
2022-10-14T10:56:57.950Z,1.77
2022-10-14T10:59:44.708Z,1.80
2022-10-14T11:02:35.655Z,1.90
2022-10-14T11:05:13.482Z,2.10
2022-10-14T11:08:12.714Z,5.13
2022-10-14T11:11:26.547Z,2.92
2022-10-14T11:14:11.495Z,1.73
2022-10-14T11:17:02.455Z,2.20
2022-10-14T11:19:41.328Z,4.20
2022-10-14T11:22:40.205Z,2.00
2022-10-14T11:25:42.895Z,2.20
2022-10-14T11:28:39.488Z,2.80
2022-10-14T11:31:35.589Z,2.55
2022-10-14T11:34:28.595Z,1.98
2022-10-14T11:37:15.757Z,1.70
2022-10-14T11:39:51.327Z,2.17
2022-10-14T11:42:44.141Z,2.10
2022-10-14T11:45:32.140Z,2.17
2022-10-14T11:48:20.370Z,2.40
2022-10-14T11:50:51.688Z,2.50
2022-10-14T11:53:27.947Z,2.50
2022-10-14T11:56:05.161Z,2.72
2022-10-14T11:58:37.069Z,2.50
2022-10-14T12:01:23.178Z,2.78
2022-10-14T12:04:11.352Z,2.50
2022-10-14T12:06:47.062Z,2.50
2022-10-14T12:09:39.401Z,2.50
2022-10-14T12:12:12.037Z,2.65
2022-10-14T12:14:45.129Z,2.67
2022-10-14T12:19:53.466Z,2.15
2022-10-14T12:22:26.047Z,2.72
2022-10-14T12:24:56.383Z,2.20
2022-10-14T12:27:26.989Z,2.40
2022-10-14T12:29:58.637Z,2.75
2022-10-14T12:32:28.172Z,2.40
2022-10-14T12:34:58.436Z,2.70
2022-10-14T12:37:50.435Z,2.10
2022-10-14T12:40:25.489Z,2.53
2022-10-14T12:43:01.960Z,2.10
2022-10-14T12:45:32.655Z,2.47
2022-10-14T12:48:07.380Z,2.80
2022-10-14T12:50:40.155Z,3.08
2022-10-14T12:55:51.722Z,2.90
2022-10-14T12:58:27.203Z,3.80
2022-10-14T13:00:58.417Z,2.92
2022-10-14T13:03:30.907Z,3.70
2022-10-14T13:06:29.152Z,4.05
2022-10-14T13:09:18.662Z,4.07
2022-10-14T13:12:06.722Z,3.63
2022-10-14T13:14:57.517Z,4.82
2022-10-14T13:17:44.318Z,3.30
2022-10-14T13:20:51.699Z,4.28
2022-10-14T13:23:37.413Z,4.07
2022-10-14T13:26:26.966Z,4.35
2022-10-14T13:29:15.378Z,4.28
2022-10-14T13:32:04.501Z,5.00
2022-10-14T13:34:51.937Z,4.60
2022-10-14T13:37:42.063Z,4.55
2022-10-14T13:40:29.206Z,4.60
2022-10-14T13:42:59.376Z,5.82
2022-10-14T13:45:43.446Z,5.57
2022-10-14T13:48:20.726Z,4.70
2022-10-14T13:50:54.172Z,7.13
2022-10-14T13:53:26.788Z,5.43
2022-10-14T13:55:54.997Z,5.38
2022-10-14T13:58:24.285Z,5.28
2022-10-14T14:01:04.704Z,6.35
2022-10-14T14:03:37.071Z,6.07
2022-10-14T14:06:13.388Z,6.93
2022-10-14T14:08:57.997Z,7.10
2022-10-14T14:11:31.906Z,6.47
2022-10-14T14:14:16.262Z,5.78
2022-10-14T14:16:55.641Z,5.90
2022-10-14T14:19:27.479Z,5.80
2022-10-14T14:22:19.304Z,6.47
2022-10-14T14:24:48.337Z,6.10
2022-10-14T14:27:18.963Z,6.40
2022-10-14T14:29:50.284Z,5.88
2022-10-14T14:32:21.269Z,6.50
2022-10-14T14:34:51.267Z,5.70
2022-10-14T14:40:20.145Z,6.45
2022-10-14T14:42:51.277Z,6.28
2022-10-14T14:45:26.353Z,5.90
2022-10-14T14:47:56.762Z,5.80
2022-10-14T14:50:37.805Z,5.93
2022-10-14T14:53:11.877Z,6.35
2022-10-14T14:55:44.859Z,5.57
2022-10-14T14:58:25.210Z,6.40
2022-10-14T15:00:55.403Z,6.03
2022-10-14T15:03:27.507Z,6.00
2022-10-14T15:05:59.703Z,6.25
2022-10-14T15:08:31.357Z,6.50
2022-10-14T15:10:59.924Z,6.00
2022-10-14T15:13:45.765Z,7.35
2022-10-14T15:16:13.992Z,6.50
2022-10-14T15:18:44.011Z,6.28
2022-10-14T15:21:19.573Z,5.85
2022-10-14T15:24:00.734Z,5.93
2022-10-14T15:26:34.888Z,5.72
2022-10-14T15:29:25.299Z,5.43
2022-10-14T15:32:14.681Z,5.15
2022-10-14T15:34:43.286Z,5.03
2022-10-14T15:37:13.746Z,4.95
2022-10-14T15:39:41.887Z,5.22
2022-10-14T15:42:12.657Z,5.28
2022-10-14T15:44:40.699Z,4.57
2022-10-14T15:47:19.772Z,4.25
2022-10-14T15:49:47.890Z,4.68
2022-10-14T15:52:19.374Z,4.78
2022-10-14T15:54:50.546Z,4.75
2022-10-14T15:57:18.929Z,4.90
2022-10-14T15:59:47.919Z,5.22
2022-10-14T16:02:23.633Z,5.25
2022-10-14T16:07:43.993Z,6.07
2022-10-14T16:10:14.205Z,5.72
2022-10-14T16:12:42.426Z,6.45
2022-10-14T16:15:20.647Z,5.90
2022-10-14T16:17:52.810Z,5.75
2022-10-14T16:20:21.812Z,6.18
2022-10-14T16:22:51.202Z,6.15
2022-10-14T16:25:30.186Z,6.07
2022-10-14T16:27:58.784Z,6.22
2022-10-14T16:30:28.295Z,5.22
2022-10-14T16:32:55.991Z,5.85
2022-10-14T16:35:23.583Z,4.40
2022-10-14T16:37:53.481Z,5.05
2022-10-14T16:40:21.052Z,5.20
2022-10-14T16:42:48.906Z,4.80
2022-10-14T16:45:17.951Z,4.43
2022-10-14T16:47:45.926Z,4.88
2022-10-14T16:50:14.472Z,4.40
2022-10-14T16:53:05.189Z,4.18
2022-10-14T16:55:34.749Z,4.90
2022-10-14T16:58:02.944Z,5.03
2022-10-14T17:00:31.538Z,3.80
2022-10-14T17:03:00.786Z,4.40
2022-10-14T17:05:30.915Z,4.60
2022-10-14T17:07:59.088Z,4.22
2022-10-14T17:10:27.275Z,4.13
2022-10-14T17:12:55.972Z,4.43
2022-10-14T17:15:25.951Z,4.80
2022-10-14T17:17:54.757Z,3.90
2022-10-14T17:20:22.695Z,4.65
2022-10-14T17:22:50.907Z,4.30
2022-10-14T17:25:20.402Z,4.25
2022-10-14T17:27:48.335Z,4.50
2022-10-14T17:30:17.245Z,5.55
2022-10-14T17:32:45.163Z,3.95
2022-10-14T17:35:15.333Z,4.18
2022-10-14T17:37:43.674Z,3.85
2022-10-14T17:40:11.962Z,3.67
2022-10-14T17:42:39.906Z,4.30
2022-10-14T17:45:09.033Z,3.67
2022-10-14T17:47:37.166Z,3.63
2022-10-14T17:50:07.417Z,4.10
2022-10-14T17:52:36.488Z,4.35
2022-10-14T17:55:04.889Z,4.32
2022-10-14T17:57:33.526Z,4.10
2022-10-14T18:00:02.503Z,4.60
2022-10-14T18:02:32.252Z,4.05
2022-10-14T18:05:00.279Z,3.80
2022-10-14T18:07:28.619Z,4.40
2022-10-14T18:09:56.909Z,3.92
2022-10-14T18:12:24.986Z,4.15
2022-10-14T18:14:53.952Z,4.30
2022-10-14T18:17:22.883Z,4.40
2022-10-14T18:19:52.314Z,4.53
2022-10-14T18:22:20.493Z,4.43
2022-10-14T18:24:48.526Z,4.35
2022-10-14T18:27:16.621Z,4.50
2022-10-14T18:29:48.180Z,4.10
2022-10-14T18:32:16.718Z,4.40
2022-10-14T18:34:46.941Z,4.00
2022-10-14T18:37:16.818Z,4.40
2022-10-14T18:39:45.624Z,3.80
2022-10-14T18:42:18.487Z,4.20
2022-10-14T18:44:49.024Z,3.80
2022-10-14T18:47:16.998Z,3.90
2022-10-14T18:49:45.030Z,4.65
2022-10-14T18:52:12.868Z,3.65
2022-10-14T18:54:41.104Z,3.70
2022-10-14T18:57:10.410Z,3.65
2022-10-14T18:59:38.341Z,3.50
2022-10-14T19:02:06.920Z,4.88
2022-10-14T19:04:36.008Z,3.90
2022-10-14T19:07:05.069Z,4.15
2022-10-14T19:09:33.148Z,3.03
2022-10-14T19:12:21.196Z,5.47
2022-10-14T19:14:49.017Z,3.30
2022-10-14T19:17:16.907Z,3.45
2022-10-14T19:19:45.076Z,3.55
2022-10-14T19:22:13.004Z,3.50
2022-10-14T19:24:41.013Z,3.00
2022-10-14T19:27:09.470Z,3.00
2022-10-14T19:29:37.634Z,3.40
2022-10-14T19:32:05.244Z,3.30
2022-10-14T19:34:32.948Z,3.38
2022-10-14T19:37:01.052Z,3.20
2022-10-14T19:39:29.036Z,3.75
2022-10-14T19:41:56.974Z,3.65
2022-10-14T19:44:24.756Z,3.40
2022-10-14T19:46:53.090Z,3.63
2022-10-14T19:49:23.699Z,3.92
2022-10-14T19:51:54.257Z,3.75
2022-10-14T19:54:22.272Z,3.40
2022-10-14T19:56:50.125Z,4.50
2022-10-14T19:59:18.217Z,3.80
2022-10-14T20:01:45.892Z,3.63
2022-10-14T20:04:13.936Z,3.60
2022-10-14T20:06:43.188Z,3.97
2022-10-14T20:09:12.409Z,4.30
2022-10-14T20:11:41.124Z,3.53
2022-10-14T20:14:09.153Z,3.30
2022-10-14T20:16:37.024Z,3.80
2022-10-14T20:19:04.808Z,4.50
2022-10-14T20:21:32.754Z,3.53
2022-10-14T20:24:00.698Z,3.90
2022-10-14T20:26:29.086Z,3.90
2022-10-14T20:28:57.024Z,3.55
2022-10-14T20:31:26.162Z,4.15
2022-10-14T20:33:56.517Z,3.83
2022-10-14T20:36:24.570Z,4.72
2022-10-14T20:38:52.579Z,4.18
2022-10-14T20:41:25.640Z,4.40
2022-10-14T20:46:22.763Z,3.95
2022-10-14T20:48:55.071Z,4.38
2022-10-14T20:51:23.541Z,4.15
2022-10-14T20:53:52.799Z,3.75
2022-10-14T20:56:22.267Z,3.78
2022-10-14T20:58:54.241Z,5.53
2022-10-14T21:01:22.667Z,4.68
2022-10-14T21:03:50.826Z,3.97
2022-10-14T21:06:20.788Z,5.40
2022-10-14T21:08:50.123Z,5.50
2022-10-14T21:11:19.701Z,5.72
2022-10-14T21:13:48.193Z,6.07
2022-10-14T21:16:25.886Z,5.72
2022-10-14T21:18:57.924Z,6.07
2022-10-14T21:21:28.857Z,6.15
2022-10-14T21:24:00.947Z,5.82
2022-10-14T21:26:32.352Z,5.40
2022-10-14T21:29:03.883Z,4.85
2022-10-14T21:31:34.257Z,5.70
2022-10-14T21:34:06.423Z,4.78
2022-10-14T21:36:37.970Z,6.28
2022-10-14T21:39:09.700Z,5.22
2022-10-14T21:41:41.748Z,5.20
2022-10-14T21:44:14.059Z,5.82
2022-10-14T21:46:45.274Z,5.07
2022-10-14T21:49:15.799Z,4.70
2022-10-14T21:51:45.472Z,5.10
2022-10-14T21:54:16.157Z,4.88
2022-10-14T21:56:44.581Z,5.47
2022-10-14T21:59:13.263Z,5.60
2022-10-14T22:01:42.131Z,4.63
2022-10-14T22:04:10.458Z,4.90
2022-10-14T22:06:38.176Z,5.13
2022-10-14T22:09:07.852Z,5.35
2022-10-14T22:11:36.909Z,5.03
2022-10-14T22:14:05.917Z,5.25
2022-10-14T22:16:33.826Z,4.78
2022-10-14T22:19:02.594Z,4.93
2022-10-14T22:21:31.550Z,4.78
2022-10-14T22:23:59.534Z,4.82
2022-10-14T22:26:28.121Z,4.60
2022-10-14T22:28:58.462Z,4.57
2022-10-14T22:31:26.726Z,4.90
2022-10-14T22:33:54.848Z,4.65
2022-10-14T22:36:25.477Z,5.18
2022-10-14T22:38:54.608Z,4.60
2022-10-14T22:41:23.941Z,4.40
2022-10-14T22:43:53.071Z,4.55
2022-10-14T22:46:21.999Z,4.82
2022-10-14T22:48:50.194Z,4.65
2022-10-14T22:51:20.299Z,4.30
2022-10-14T22:53:48.330Z,4.28
2022-10-14T22:56:17.358Z,4.78
2022-10-14T22:58:45.273Z,4.05
2022-10-14T23:01:16.302Z,3.90
2022-10-14T23:03:44.197Z,4.10
2022-10-14T23:06:13.672Z,4.13
2022-10-14T23:08:42.115Z,3.50
2022-10-14T23:11:11.494Z,4.28
2022-10-14T23:13:39.253Z,4.03
2022-10-14T23:16:08.829Z,3.67
2022-10-14T23:18:37.954Z,3.80
2022-10-14T23:21:10.173Z,4.30
2022-10-14T23:23:38.116Z,4.23
2022-10-14T23:26:06.701Z,4.07
2022-10-14T23:28:37.226Z,4.90
2022-10-14T23:31:13.659Z,7.43
2022-10-14T23:33:42.222Z,5.13
2022-10-14T23:36:11.373Z,4.45
2022-10-14T23:38:40.939Z,4.38
2022-10-14T23:41:09.248Z,4.68
2022-10-14T23:43:37.528Z,4.30
2022-10-14T23:46:05.977Z,4.43
2022-10-14T23:48:34.019Z,4.18
2022-10-14T23:51:02.106Z,4.18
2022-10-14T23:53:31.253Z,3.97
2022-10-14T23:55:59.366Z,3.70
2022-10-14T23:58:29.815Z,4.10
